Eads, TN (38028)

5:35 PM CDT on August 23, 2016 (GMT -0500)
Oaklawn Estates | | Change Station

Elev 384 ft 35.18 °N, 89.71 °W | Updated 2 minutes ago

Mostly Cloudy
Mostly Cloudy
83.7 °F
Feels Like 95 °F
N
0.0
Wind Variable Wind from NNW
Gusts 0.0 mph

Today
High -- | Low -- °F
--% Chance of Precip.
Yesterday
High -- | Low -- °F
Precip. -- in
Pressure 30.15 in
Visibility 10.0 miles
Clouds Few 4000 ft
Scattered Clouds 5000 ft
Mostly Cloudy 25000 ft
Heat Index 95 °F
Dew Point 79 °F
Humidity 85%
Rainfall 0.09 in
Snow Depth Not available.
6:24 AM 7:36 PM
Waning Gibbous, 64% visible
METAR KNQA 232150Z 20003KT 10SM FEW040 SCT050 BKN250 32/25 A3015
Pressure 30.15 in
Visibility 10.0 miles
Clouds Few 4000 ft
Scattered Clouds 5000 ft
Mostly Cloudy 25000 ft
Heat Index 95 °F
Dew Point 79 °F
Humidity 85%
Rainfall 0.09 in
Snow Depth Not available.
6:24 AM 7:36 PM
Waning Gibbous, 64% visible
METAR KNQA 232150Z 20003KT 10SM FEW040 SCT050 BKN250 32/25 A3015

10-Day Weather Forecast

Almanac

Astronomy

Aug. 23, 2016 Rise Set
Actual Time
Civil Twilight
Nautical Twilight
Astronomical Twilight
Moon
Length of Visible Light
Length of Day
Tomorrow will be .
, % of the Moon is Illuminated

Today's Extremes

State Highs State Lows

Community

WunderPhotos

Upload Photos

1,934,486 photos uploaded!

WunderBlog® & News

Nearby

Air Quality

  Air Quality AQ Index Pollutant
Not available.

Snow Depth

Station Depth Elevation

Earthquake Activity

City Distance Mag. Time & Date
Minimum magnitude displayed is 2.5.

Coastal Water Temperatures

Place Temperature

Stations

Nearby Weather Stations

Station Location Temp. Windchill Dew Point Humidity Wind Precip. Elev Updated Type
                   

Watches & Warnings

There are currently no watches in effect.